Ringkobing, Denmark
Current Conditions -  °F | °C
As of 5:20 PM on Thursday 30 Oct 2014 (Local Time) from EKKA Reporting Station
Broken Clouds Broken Clouds  
Wind Chill: 46°   Ceiling: 16000
Heat Index: 48°   Visibility: 6mi
Dew Point: 43°   Wind: 5mph
Humidity: 82%   Direction: 140°SE
Pressure: 30.21"   Gusts: NA
Location:  56.09°N, 8.24°E
Report Text: EKKA 301620Z AUTO 14004KT 9999NDV BKN160/// 09/06 Q1023
Loading
Personal Weather Stations






























Interactive Weather Map
Tropical Storm Tracking
New forecast layout! Learn more

10-Day Weather Forecast

Advertisements
Track Severe Weather on mobile